createdAt,value
2022-08-19T00:01:53.143Z,96901.09
2022-08-19T00:04:25.430Z,96903.13
2022-08-19T00:06:55.277Z,96902.09
2022-08-19T00:09:25.860Z,96908.63
2022-08-19T00:11:57.464Z,96906.84
2022-08-19T00:14:31.295Z,96912.53
2022-08-19T00:17:00.769Z,96919.09
2022-08-19T00:19:30.653Z,96922.59
2022-08-19T00:21:59.916Z,96929.25
2022-08-19T00:24:29.833Z,96929.13
2022-08-19T00:27:04.915Z,96929.84
2022-08-19T00:29:52.777Z,96926.00
2022-08-19T00:32:23.081Z,96928.25
2022-08-19T00:34:54.598Z,96925.84
2022-08-19T00:37:24.802Z,96936.31
2022-08-19T00:39:54.275Z,96932.25
2022-08-19T00:42:24.324Z,96923.81
2022-08-19T00:44:54.891Z,96922.56
2022-08-19T00:47:24.335Z,96946.63
2022-08-19T00:49:58.964Z,96951.25
2022-08-19T00:52:31.096Z,96958.72
2022-08-19T00:55:01.023Z,96950.47
2022-08-19T00:57:35.156Z,96955.34
2022-08-19T01:00:11.363Z,96950.47
2022-08-19T01:02:41.587Z,96957.13
2022-08-19T01:05:13.750Z,96945.22
2022-08-19T01:07:44.236Z,96961.75
2022-08-19T01:10:17.653Z,96967.78
2022-08-19T01:12:48.220Z,96978.25
2022-08-19T01:15:24.011Z,96985.69
2022-08-19T01:17:54.279Z,96996.44
2022-08-19T01:20:25.577Z,97001.53
2022-08-19T01:22:58.634Z,96994.06
2022-08-19T01:28:06.419Z,96976.66
2022-08-19T01:30:44.500Z,96974.34
2022-08-19T01:33:21.884Z,96968.06
2022-08-19T01:35:52.486Z,96970.53
2022-08-19T01:38:29.295Z,96952.66
2022-08-19T01:40:59.629Z,96948.78
2022-08-19T01:43:31.004Z,96940.84
2022-08-19T01:46:00.173Z,96924.34
2022-08-19T01:48:30.521Z,96903.53
2022-08-19T01:51:00.277Z,96886.25
2022-08-19T01:53:33.783Z,96881.72
2022-08-19T01:56:04.148Z,96878.91
2022-08-19T01:58:37.122Z,96856.50
2022-08-19T02:01:07.603Z,96855.81
2022-08-19T02:03:37.130Z,96871.50
2022-08-19T02:06:07.282Z,96875.16
2022-08-19T02:08:40.821Z,96882.28
2022-08-19T02:11:10.598Z,96891.44
2022-08-19T02:13:39.934Z,96895.78
2022-08-19T02:16:09.608Z,96882.91
2022-08-19T02:18:39.899Z,96891.25
2022-08-19T02:21:09.729Z,96883.75
2022-08-19T02:23:41.009Z,96881.53
2022-08-19T02:26:10.737Z,96864.16
2022-08-19T02:28:40.485Z,96871.41
2022-08-19T02:31:13.217Z,96861.28
2022-08-19T02:33:42.768Z,96858.53
2022-08-19T02:36:15.534Z,96865.00
2022-08-19T02:38:47.699Z,96859.56
2022-08-19T02:41:26.864Z,96870.75
2022-08-19T02:44:18.444Z,96862.81
2022-08-19T02:46:52.403Z,96862.81
2022-08-19T02:49:22.736Z,96871.50
2022-08-19T02:51:52.346Z,96863.06
2022-08-19T02:54:23.414Z,96875.06
2022-08-19T02:56:52.879Z,96875.09
2022-08-19T02:59:22.982Z,96874.53
2022-08-19T03:01:52.462Z,96876.56
2022-08-19T03:04:22.599Z,96879.28
2022-08-19T03:06:52.116Z,96875.72
2022-08-19T03:09:23.954Z,96880.81
2022-08-19T03:11:53.547Z,96873.84
2022-08-19T03:14:23.436Z,96878.63
2022-08-19T03:16:54.559Z,96872.28
2022-08-19T03:19:24.379Z,96878.50
2022-08-19T03:21:54.588Z,96892.97
2022-08-19T03:24:25.740Z,96894.50
2022-08-19T03:26:58.875Z,96899.50
2022-08-19T03:29:30.661Z,96892.03
2022-08-19T03:32:02.255Z,96882.06
2022-08-19T03:34:36.274Z,96887.66
2022-08-19T03:37:08.753Z,96883.75
2022-08-19T03:39:46.567Z,96901.56
2022-08-19T03:42:47.952Z,96929.03
2022-08-19T03:45:09.156Z,96951.16
2022-08-19T03:47:39.066Z,96972.50
2022-08-19T03:50:10.060Z,96982.59
2022-08-19T03:56:27.141Z,97024.97
2022-08-19T03:58:57.880Z,97034.19
2022-08-19T04:05:14.189Z,97055.53
2022-08-19T04:07:43.431Z,97042.25
2022-08-19T04:10:13.015Z,97028.41
2022-08-19T04:12:47.561Z,97025.25
2022-08-19T04:15:18.793Z,97029.25
2022-08-19T04:17:48.279Z,97020.94
2022-08-19T04:20:17.818Z,97021.97
2022-08-19T04:22:47.195Z,97025.97
2022-08-19T04:25:16.781Z,97006.97
2022-08-19T04:27:47.919Z,96991.34
2022-08-19T04:30:18.815Z,96985.44
2022-08-19T04:32:48.051Z,96995.06
2022-08-19T04:35:20.136Z,96998.22
2022-08-19T04:37:51.420Z,96974.16
2022-08-19T04:40:38.124Z,96977.34
2022-08-19T04:43:09.651Z,96967.56
2022-08-19T04:45:43.927Z,96968.22
2022-08-19T04:48:26.566Z,96969.81
2022-08-19T04:50:59.085Z,96961.28
2022-08-19T04:53:38.063Z,96947.72
2022-08-19T04:56:10.269Z,96954.31
2022-08-19T04:58:43.491Z,96936.31
2022-08-19T05:01:15.310Z,96950.59
2022-08-19T05:03:46.887Z,96943.63
2022-08-19T05:06:18.039Z,96942.16
2022-08-19T05:08:48.030Z,96945.25
2022-08-19T05:11:26.242Z,96951.28
2022-08-19T05:13:59.979Z,96973.25
2022-08-19T05:16:30.267Z,96988.31
2022-08-19T05:19:16.684Z,96999.19
2022-08-19T05:22:03.697Z,96999.19
2022-08-19T05:24:35.340Z,96994.91
2022-08-19T05:27:05.496Z,96988.66
2022-08-19T05:29:37.038Z,96997.16
2022-08-19T05:32:11.565Z,96995.16
2022-08-19T05:34:40.946Z,96991.97
2022-08-19T05:37:11.375Z,96989.03
2022-08-19T05:39:41.590Z,96985.81
2022-08-19T05:42:12.794Z,96987.34
2022-08-19T05:44:46.102Z,96990.63
2022-08-19T05:47:17.320Z,96997.41
2022-08-19T05:49:46.955Z,96986.63
2022-08-19T05:52:18.842Z,97000.31
2022-08-19T05:54:52.091Z,97014.97
2022-08-19T05:57:21.997Z,97019.69
2022-08-19T05:59:58.070Z,97023.78
2022-08-19T06:02:28.518Z,97028.94
2022-08-19T06:04:57.928Z,97023.19
2022-08-19T06:07:27.632Z,97028.50
2022-08-19T06:10:01.029Z,97019.25
2022-08-19T06:12:35.725Z,97033.34
2022-08-19T06:15:10.833Z,97038.41
2022-08-19T06:17:40.247Z,97025.84
2022-08-19T06:20:13.080Z,97018.84
2022-08-19T06:22:43.658Z,97021.84
2022-08-19T06:25:14.888Z,97017.94
2022-08-19T06:28:11.490Z,97008.66
2022-08-19T06:30:35.323Z,96987.63
2022-08-19T06:33:05.058Z,96987.22
2022-08-19T06:35:35.466Z,97005.56
2022-08-19T06:38:20.428Z,96984.34
2022-08-19T06:41:02.940Z,96988.25
2022-08-19T06:44:13.239Z,96987.81
2022-08-19T06:47:23.668Z,96996.50
2022-08-19T06:50:02.991Z,97014.81
2022-08-19T06:52:34.336Z,97020.16
2022-08-19T06:55:09.344Z,97011.88
2022-08-19T06:57:38.757Z,97011.38
2022-08-19T07:00:13.200Z,97023.63
2022-08-19T07:02:49.767Z,97031.44
2022-08-19T07:05:25.672Z,97042.47
2022-08-19T07:07:58.177Z,97059.16
2022-08-19T07:10:34.273Z,97058.47
2022-08-19T07:13:04.308Z,97069.47
2022-08-19T07:15:33.588Z,97066.63
2022-08-19T07:18:04.489Z,97072.13
2022-08-19T07:20:33.983Z,97063.31
2022-08-19T07:23:07.189Z,97058.56
2022-08-19T07:25:38.187Z,97061.59
2022-08-19T07:28:22.478Z,97064.66
2022-08-19T07:30:56.183Z,97067.13
2022-08-19T07:33:28.047Z,97061.84
2022-08-19T07:35:57.617Z,97069.81
2022-08-19T07:38:27.414Z,97083.66
2022-08-19T07:40:56.910Z,97067.09
2022-08-19T07:43:33.414Z,97065.88
2022-08-19T07:46:04.960Z,97087.41
2022-08-19T07:48:36.422Z,97108.19
2022-08-19T07:51:09.277Z,97108.19
2022-08-19T07:53:39.986Z,97103.16
2022-08-19T07:56:10.203Z,97090.38
2022-08-19T07:58:41.184Z,97108.72
2022-08-19T08:01:13.086Z,97116.25
2022-08-19T08:04:01.964Z,97127.50
2022-08-19T08:06:51.178Z,97124.94
2022-08-19T08:09:23.298Z,97133.78
2022-08-19T08:11:55.807Z,97120.91
2022-08-19T08:14:29.688Z,97111.75
2022-08-19T08:17:10.988Z,97119.97
2022-08-19T08:19:42.399Z,97100.97
2022-08-19T08:22:35.301Z,97077.88
2022-08-19T08:25:07.744Z,97055.34
2022-08-19T08:27:40.637Z,97053.25
2022-08-19T08:30:10.787Z,97017.44
2022-08-19T08:32:41.183Z,97020.66
2022-08-19T08:35:14.878Z,97038.22
2022-08-19T08:37:44.613Z,97040.72
2022-08-19T08:40:23.217Z,97071.91
2022-08-19T08:42:57.419Z,97086.16
2022-08-19T08:45:27.852Z,97048.00
2022-08-19T08:48:06.614Z,97047.44
2022-08-19T08:50:54.441Z,97035.38
2022-08-19T08:53:29.627Z,97019.81
2022-08-19T08:56:03.119Z,97029.91
2022-08-19T08:58:45.357Z,97051.78
2022-08-19T09:01:16.477Z,97039.25
2022-08-19T09:03:47.293Z,97038.78
2022-08-19T09:06:25.948Z,97048.59
2022-08-19T09:09:04.772Z,97058.31
2022-08-19T09:11:58.618Z,97081.31
2022-08-19T09:14:50.359Z,97086.56
2022-08-19T09:17:29.217Z,97079.59
2022-08-19T09:20:02.234Z,97071.91
2022-08-19T09:22:32.964Z,97073.16
2022-08-19T09:25:03.256Z,97049.81
2022-08-19T09:27:41.792Z,97024.13
2022-08-19T09:30:17.149Z,97016.84
2022-08-19T09:32:46.954Z,97004.09
2022-08-19T09:35:24.296Z,97026.91
2022-08-19T09:37:57.819Z,97028.47
2022-08-19T09:40:32.624Z,97040.22
2022-08-19T09:43:09.954Z,97057.59
2022-08-19T09:45:42.631Z,97051.66
2022-08-19T09:48:12.068Z,97037.31
2022-08-19T09:50:51.865Z,97033.78
2022-08-19T09:53:25.141Z,97041.59
2022-08-19T09:55:57.046Z,97026.06
2022-08-19T09:58:28.751Z,97009.75
2022-08-19T10:00:59.471Z,97043.19
2022-08-19T10:03:29.988Z,97070.72
2022-08-19T10:06:01.471Z,97072.72
2022-08-19T10:08:34.183Z,97068.22
2022-08-19T10:11:27.817Z,97076.97
2022-08-19T10:13:53.162Z,97084.03
2022-08-19T10:16:30.002Z,97069.44
2022-08-19T10:19:00.435Z,97079.72
2022-08-19T10:21:35.309Z,97087.28
2022-08-19T10:24:09.363Z,97060.13
2022-08-19T10:26:45.611Z,97057.63
2022-08-19T10:29:31.966Z,97071.00
2022-08-19T10:32:03.955Z,97061.69
2022-08-19T10:34:34.307Z,97054.94
2022-08-19T10:37:04.028Z,97052.94
2022-08-19T10:39:44.220Z,97081.81
2022-08-19T10:42:14.515Z,97090.66
2022-08-19T10:44:44.867Z,97102.47
2022-08-19T10:47:17.596Z,97102.47
2022-08-19T10:50:12.385Z,97106.75
2022-08-19T10:52:50.160Z,97102.22
2022-08-19T10:55:42.437Z,97090.69
2022-08-19T10:58:17.572Z,97089.66
2022-08-19T11:00:55.552Z,97074.59
2022-08-19T11:03:25.396Z,97069.31
2022-08-19T11:06:01.675Z,97059.03
2022-08-19T11:08:31.820Z,97055.53
2022-08-19T11:11:04.367Z,97060.06
2022-08-19T11:13:36.823Z,97045.47
2022-08-19T11:16:09.369Z,97036.06
2022-08-19T11:18:40.667Z,97050.44
2022-08-19T11:21:14.909Z,97079.91
2022-08-19T11:23:46.716Z,97101.03
2022-08-19T11:26:18.479Z,97103.53
2022-08-19T11:28:48.704Z,97091.94
2022-08-19T11:31:21.456Z,97082.34
2022-08-19T11:33:54.762Z,97065.50
2022-08-19T11:36:24.987Z,97055.69
2022-08-19T11:38:54.567Z,97086.91
2022-08-19T11:41:26.210Z,97089.94
2022-08-19T11:43:56.807Z,97080.88
2022-08-19T11:46:28.569Z,97085.63
2022-08-19T11:49:04.195Z,97078.81
2022-08-19T11:51:34.763Z,97086.59
2022-08-19T11:54:06.803Z,97074.78
2022-08-19T11:56:38.584Z,97063.41
2022-08-19T11:59:14.803Z,97058.06
2022-08-19T12:01:44.587Z,97059.56
2022-08-19T12:04:14.726Z,97042.88
2022-08-19T12:06:44.311Z,97039.22
2022-08-19T12:09:15.359Z,97038.28
2022-08-19T12:11:46.871Z,97033.78
2022-08-19T12:14:17.536Z,97031.38
2022-08-19T12:16:51.609Z,97036.44
2022-08-19T12:19:22.851Z,97027.13
2022-08-19T12:21:56.471Z,97022.56
2022-08-19T12:24:26.104Z,97016.16
2022-08-19T12:27:00.854Z,97017.22
2022-08-19T12:29:33.367Z,97010.78
2022-08-19T12:32:04.040Z,97009.63
2022-08-19T12:34:35.703Z,97003.44
2022-08-19T12:37:06.749Z,97004.94
2022-08-19T12:39:42.185Z,97006.13
2022-08-19T12:42:14.782Z,96998.19
2022-08-19T12:44:45.412Z,96994.53
2022-08-19T12:47:16.445Z,97002.84
2022-08-19T12:49:54.234Z,97008.66
2022-08-19T12:52:26.233Z,97005.88
2022-08-19T12:54:57.625Z,97012.31
2022-08-19T12:57:34.253Z,97011.44
2022-08-19T13:00:09.705Z,97013.56
2022-08-19T13:02:40.183Z,97022.03
2022-08-19T13:05:12.344Z,97021.19
2022-08-19T13:07:45.028Z,97015.75
2022-08-19T13:10:17.526Z,97021.50
2022-08-19T13:12:49.563Z,97018.03
2022-08-19T13:15:23.669Z,97013.41
2022-08-19T13:17:56.916Z,97006.13
2022-08-19T13:20:27.232Z,97009.69
2022-08-19T13:22:58.308Z,97002.94
2022-08-19T13:25:27.720Z,96990.53
2022-08-19T13:27:58.835Z,96983.72
2022-08-19T13:30:45.568Z,96981.56
2022-08-19T13:33:17.432Z,96989.41
2022-08-19T13:35:50.907Z,96993.75
2022-08-19T13:38:22.336Z,96976.19
2022-08-19T13:40:53.737Z,96980.69
2022-08-19T13:43:27.069Z,96990.22
2022-08-19T13:45:57.927Z,96975.22
2022-08-19T13:48:28.730Z,96973.97
2022-08-19T13:50:58.339Z,96964.25
2022-08-19T13:53:31.316Z,96959.09
2022-08-19T13:56:00.525Z,96954.09
2022-08-19T13:58:32.666Z,96938.81
2022-08-19T14:01:02.129Z,96941.19
2022-08-19T14:03:31.461Z,96939.56
2022-08-19T14:06:01.152Z,96945.63
2022-08-19T14:08:33.221Z,96955.00
2022-08-19T14:11:06.617Z,96952.78
2022-08-19T14:13:37.429Z,96949.03
2022-08-19T14:16:10.986Z,96945.34
2022-08-19T14:18:42.914Z,96928.97
2022-08-19T14:21:18.387Z,96923.25
2022-08-19T14:23:47.638Z,96929.19
2022-08-19T14:26:21.552Z,96928.47
2022-08-19T14:28:55.293Z,96933.78
2022-08-19T14:31:26.803Z,96930.09
2022-08-19T14:33:59.410Z,96930.63
2022-08-19T14:36:28.267Z,96940.56
2022-08-19T14:38:58.500Z,96942.19
2022-08-19T14:41:28.259Z,96935.72
2022-08-19T14:44:00.516Z,96939.03
2022-08-19T14:46:31.377Z,96940.09
2022-08-19T14:49:00.704Z,96944.59
2022-08-19T14:51:29.899Z,96945.28
2022-08-19T14:53:59.258Z,96931.19
2022-08-19T14:56:31.716Z,96926.50
2022-08-19T14:59:02.120Z,96928.31
2022-08-19T15:01:31.853Z,96925.72
2022-08-19T15:04:02.563Z,96927.66
2022-08-19T15:06:32.940Z,96940.53
2022-08-19T15:09:04.562Z,96936.16
2022-08-19T15:11:34.210Z,96929.97
2022-08-19T15:14:07.883Z,96930.91
2022-08-19T15:16:40.477Z,96929.88
2022-08-19T15:19:09.846Z,96932.28
2022-08-19T15:21:38.864Z,96924.16
2022-08-19T15:24:08.547Z,96899.09
2022-08-19T15:26:38.104Z,96883.56
2022-08-19T15:29:08.821Z,96884.59
2022-08-19T15:31:41.634Z,96883.72
2022-08-19T15:34:12.103Z,96886.44
2022-08-19T15:36:41.317Z,96891.63
2022-08-19T15:39:11.793Z,96886.22
2022-08-19T15:41:41.199Z,96882.47
2022-08-19T15:44:18.707Z,96895.00
2022-08-19T15:46:50.368Z,96903.69
2022-08-19T15:49:22.998Z,96895.06
2022-08-19T15:51:57.982Z,96883.44
2022-08-19T15:54:27.208Z,96885.81
2022-08-19T15:57:15.352Z,96901.03
2022-08-19T16:00:04.504Z,96905.91
2022-08-19T16:02:53.461Z,96913.78
2022-08-19T16:05:44.805Z,96901.44
2022-08-19T16:08:15.664Z,96890.19
2022-08-19T16:10:45.090Z,96877.66
2022-08-19T16:13:14.281Z,96881.09
2022-08-19T16:15:45.146Z,96884.94
2022-08-19T16:18:14.262Z,96889.56
2022-08-19T16:20:44.367Z,96888.22
2022-08-19T16:23:13.526Z,96889.53
2022-08-19T16:25:42.701Z,96895.59
2022-08-19T16:28:13.545Z,96897.63
2022-08-19T16:30:48.501Z,96922.53
2022-08-19T16:33:22.780Z,96938.28
2022-08-19T16:36:00.357Z,96957.53
2022-08-19T16:38:37.654Z,96936.41
2022-08-19T16:41:18.583Z,96925.09
2022-08-19T16:43:49.309Z,96920.47
2022-08-19T16:46:20.338Z,96922.34
2022-08-19T16:48:52.263Z,96932.47
2022-08-19T16:51:22.866Z,96929.44
2022-08-19T16:53:53.660Z,96935.50
2022-08-19T16:56:25.654Z,96931.19
2022-08-19T16:58:54.792Z,96929.31
2022-08-19T17:01:26.395Z,96938.03
2022-08-19T17:03:56.362Z,96935.16
2022-08-19T17:06:28.367Z,96935.97
2022-08-19T17:09:00.517Z,96936.13
2022-08-19T17:11:35.878Z,96939.59
2022-08-19T17:14:07.199Z,96945.19
2022-08-19T17:16:39.917Z,96935.69
2022-08-19T17:19:10.148Z,96937.53
2022-08-19T17:21:40.701Z,96930.00
2022-08-19T17:24:10.203Z,96914.03
2022-08-19T17:26:39.921Z,96897.59
2022-08-19T17:29:09.450Z,96886.81
2022-08-19T17:31:40.203Z,96878.34
2022-08-19T17:34:09.370Z,96874.50
2022-08-19T17:36:38.407Z,96857.91
2022-08-19T17:39:07.882Z,96849.13
2022-08-19T17:41:37.072Z,96849.78
2022-08-19T17:44:06.683Z,96855.75
2022-08-19T17:46:35.890Z,96863.41
2022-08-19T17:49:09.256Z,96879.34
2022-08-19T17:51:52.361Z,96898.53
2022-08-19T17:54:21.771Z,96918.22
2022-08-19T17:56:51.340Z,96932.34
2022-08-19T17:59:20.723Z,96939.41
2022-08-19T18:01:57.687Z,96941.94
2022-08-19T18:04:31.418Z,96956.34
2022-08-19T18:07:04.522Z,96960.84
2022-08-19T18:09:49.411Z,96958.91
2022-08-19T18:12:23.475Z,96960.09
2022-08-19T18:14:55.162Z,96978.22
2022-08-19T18:17:29.097Z,96978.25
2022-08-19T18:20:00.144Z,96983.28
2022-08-19T18:22:33.699Z,96984.28
2022-08-19T18:25:05.166Z,96986.28
2022-08-19T18:27:47.899Z,96991.09
2022-08-19T18:33:28.777Z,97001.66
2022-08-19T18:36:10.966Z,97008.97
2022-08-19T18:38:57.370Z,97003.72
2022-08-19T18:41:44.470Z,97023.09
2022-08-19T18:44:30.701Z,97029.63
2022-08-19T18:47:17.063Z,97038.91
2022-08-19T18:49:46.104Z,97041.47
2022-08-19T18:52:17.046Z,97038.19
2022-08-19T18:54:48.404Z,97037.44
2022-08-19T18:57:19.530Z,97036.19
2022-08-19T18:59:48.575Z,97029.63
2022-08-19T19:05:08.371Z,97031.88
2022-08-19T19:07:39.668Z,97034.63
2022-08-19T19:10:12.199Z,97045.47
2022-08-19T19:12:45.762Z,97055.50
2022-08-19T19:15:14.884Z,97055.53
2022-08-19T19:17:45.170Z,97055.75
2022-08-19T19:20:14.932Z,97051.75
2022-08-19T19:22:45.529Z,97057.78
2022-08-19T19:25:14.724Z,97057.00
2022-08-19T19:30:33.076Z,97074.88
2022-08-19T19:33:02.441Z,97077.88
2022-08-19T19:35:32.477Z,97083.16
2022-08-19T19:38:03.199Z,97074.84
2022-08-19T19:40:32.472Z,97075.81
2022-08-19T19:43:04.756Z,97077.09
2022-08-19T19:45:34.754Z,97075.31
2022-08-19T19:48:03.739Z,97079.00
2022-08-19T19:50:32.823Z,97079.78
2022-08-19T19:53:03.656Z,97095.31
2022-08-19T19:55:32.756Z,97094.81
2022-08-19T19:58:01.454Z,97100.84
2022-08-19T20:00:30.882Z,97101.63
2022-08-19T20:03:01.255Z,97094.38
2022-08-19T20:05:30.410Z,97101.94
2022-08-19T20:08:16.667Z,97096.34
2022-08-19T20:10:49.609Z,97102.34
2022-08-19T20:13:18.748Z,97104.34
2022-08-19T20:15:47.572Z,97096.28
2022-08-19T20:18:16.895Z,97107.09
2022-08-19T20:20:46.506Z,97102.28
2022-08-19T20:23:15.423Z,97096.53
2022-08-19T20:25:44.737Z,97097.78
2022-08-19T20:28:15.290Z,97098.28
2022-08-19T20:30:46.402Z,97106.06
2022-08-19T20:33:16.159Z,97109.31
2022-08-19T20:35:46.267Z,97109.31
2022-08-19T20:38:15.860Z,97108.28
2022-08-19T20:40:44.790Z,97123.13
2022-08-19T20:43:15.713Z,97127.16
2022-08-19T20:45:44.886Z,97117.09
2022-08-19T20:48:13.872Z,97117.56
2022-08-19T20:50:42.884Z,97118.78
2022-08-19T20:53:13.652Z,97109.75
2022-08-19T20:55:46.611Z,97106.97
2022-08-19T20:58:19.433Z,97107.47
2022-08-19T21:00:50.726Z,97113.78
2022-08-19T21:03:22.750Z,97119.53
2022-08-19T21:05:51.970Z,97110.75
2022-08-19T21:08:21.695Z,97118.81
2022-08-19T21:10:53.386Z,97114.75
2022-08-19T21:13:24.833Z,97114.00
2022-08-19T21:15:54.391Z,97108.19
2022-08-19T21:18:27.522Z,97109.50
2022-08-19T21:20:57.758Z,97104.19
2022-08-19T21:23:31.306Z,97100.88
2022-08-19T21:26:02.164Z,97091.06
2022-08-19T21:28:50.720Z,97087.47
2022-08-19T21:31:19.708Z,97088.53
2022-08-19T21:33:48.721Z,97092.31
2022-08-19T21:36:17.833Z,97091.47
2022-08-19T21:38:46.890Z,97103.09
2022-08-19T21:41:15.929Z,97096.03
2022-08-19T21:43:44.938Z,97095.44
2022-08-19T21:46:16.374Z,97092.69
2022-08-19T21:48:46.078Z,97086.88
2022-08-19T21:51:15.146Z,97085.91
2022-08-19T21:53:45.943Z,97083.34
2022-08-19T21:56:14.930Z,97087.88
2022-08-19T21:58:44.753Z,97097.63
2022-08-19T22:01:15.910Z,97099.63
2022-08-19T22:03:45.438Z,97101.38
2022-08-19T22:06:14.527Z,97114.41
2022-08-19T22:08:44.884Z,97116.91
2022-08-19T22:11:13.846Z,97120.44
2022-08-19T22:13:42.930Z,97130.19
2022-08-19T22:16:14.387Z,97124.63
2022-08-19T22:18:45.250Z,97125.88
2022-08-19T22:21:15.658Z,97117.56
2022-08-19T22:23:52.057Z,97120.06
2022-08-19T22:26:21.689Z,97115.81
2022-08-19T22:28:50.633Z,97118.38
2022-08-19T22:31:20.010Z,97125.34
2022-08-19T22:33:52.961Z,97113.78
2022-08-19T22:36:22.019Z,97105.75
2022-08-19T22:38:51.045Z,97108.25
2022-08-19T22:41:20.147Z,97102.47
2022-08-19T22:43:51.526Z,97095.28
2022-08-19T22:46:20.678Z,97084.25
2022-08-19T22:48:56.719Z,97081.94
2022-08-19T22:51:48.114Z,97076.91
2022-08-19T22:54:20.302Z,97079.09
2022-08-19T22:56:51.448Z,97086.13
2022-08-19T22:59:20.409Z,97086.13
2022-08-19T23:01:49.616Z,97079.91
2022-08-19T23:04:20.355Z,97074.13
2022-08-19T23:06:52.078Z,97074.56
2022-08-19T23:09:23.472Z,97076.06
2022-08-19T23:11:52.843Z,97075.63
2022-08-19T23:14:21.589Z,97075.31
2022-08-19T23:16:51.468Z,97087.09
2022-08-19T23:19:23.377Z,97082.56
2022-08-19T23:21:52.699Z,97080.31
2022-08-19T23:24:21.683Z,97091.34
2022-08-19T23:27:08.494Z,97085.00
2022-08-19T23:29:55.228Z,97085.72
2022-08-19T23:32:25.550Z,97099.53
2022-08-19T23:34:58.000Z,97099.53
2022-08-19T23:37:28.658Z,97098.78
2022-08-19T23:39:57.577Z,97104.09
2022-08-19T23:42:26.749Z,97099.53
2022-08-19T23:45:03.790Z,97093.16
2022-08-19T23:47:34.091Z,97099.44
2022-08-19T23:50:07.770Z,97094.22
2022-08-19T23:52:46.697Z,97097.91
2022-08-19T23:55:21.481Z,97087.59
2022-08-19T23:57:51.058Z,97103.66
